Time;durP1;ratioP1;P1;durP2;ratioP2;P2;SDS_P1;SDS_P2;PMS_P1;PMS_P2;Temp;Humidity;BMP_temperature;BMP_pressure;BME280_temperature;BME280_humidity;BME280_pressure;Samples;Min_cycle;Max_cycle;Signal;HPM_P1;HPM_P2
2022/06/29 00:02:11;;;;;;;7.10;1.20;;;17.80;99.90;;;;;;5045430;28;20470;-51
2022/06/29 00:04:38;;;;;;;1.47;1.37;;;17.70;99.90;;;;;;5044713;28;20876;-49
2022/06/29 00:07:06;;;;;;;1.20;1.20;;;17.70;99.90;;;;;;5053559;28;20527;-49
2022/06/29 00:09:32;;;;;;;1.60;1.50;;;17.70;99.90;;;;;;5053010;28;20461;-51
2022/06/29 00:11:59;;;;;;;1.30;1.20;;;17.70;99.90;;;;;;5036419;28;20500;-49
2022/06/29 00:14:26;;;;;;;1.50;1.50;;;17.70;99.90;;;;;;5049124;28;20519;-50
2022/06/29 00:16:52;;;;;;;1.63;1.30;;;17.60;99.90;;;;;;5045506;28;20481;-49
2022/06/29 00:19:19;;;;;;;2.10;1.33;;;17.60;99.90;;;;;;5045346;28;20467;-50
2022/06/29 00:21:46;;;;;;;1.30;1.20;;;17.60;99.90;;;;;;5052270;28;20453;-50
2022/06/29 00:24:14;;;;;;;1.37;1.27;;;17.50;99.90;;;;;;5043456;28;21022;-51
2022/06/29 00:26:40;;;;;;;3.00;1.40;;;17.50;99.90;;;;;;5067888;22;20557;-53
2022/06/29 00:29:07;;;;;;;1.23;1.23;;;17.50;99.90;;;;;;5054508;28;20462;-54
2022/06/29 00:31:33;;;;;;;1.20;1.10;;;17.40;99.90;;;;;;5050234;28;20517;-52
2022/06/29 00:34:00;;;;;;;1.20;1.10;;;17.40;99.90;;;;;;5049336;28;20490;-52
2022/06/29 00:36:27;;;;;;;1.77;1.40;;;17.40;99.90;;;;;;5047973;28;20903;-54
2022/06/29 00:38:53;;;;;;;1.40;1.07;;;17.30;99.90;;;;;;5053194;28;20587;-53
2022/06/29 00:41:21;;;;;;;1.40;1.03;;;17.30;99.90;;;;;;5051747;28;20561;-53
2022/06/29 00:43:48;;;;;;;2.93;1.10;;;17.30;99.90;;;;;;5050528;28;20950;-52
2022/06/29 00:46:14;;;;;;;1.50;1.40;;;17.30;99.90;;;;;;5052638;28;20523;-54
2022/06/29 00:48:41;;;;;;;1.43;1.23;;;17.20;99.90;;;;;;5051805;28;20484;-54
2022/06/29 00:51:11;;;;;;;2.23;1.10;;;17.20;99.90;;;;;;5049361;28;21076;-52
2022/06/29 00:53:41;;;;;;;1.40;1.40;;;17.20;99.90;;;;;;5051252;28;20466;-52
2022/06/29 00:56:11;;;;;;;1.43;1.33;;;17.20;99.90;;;;;;5050801;28;20488;-53
2022/06/29 00:58:41;;;;;;;2.97;1.40;;;17.20;99.90;;;;;;5050092;28;20489;-54
2022/06/29 01:01:09;;;;;;;1.63;1.53;;;17.10;99.90;;;;;;5047146;28;20462;-54
2022/06/29 01:03:36;;;;;;;3.90;1.20;;;17.10;99.90;;;;;;5048153;28;20465;-52
2022/06/29 01:06:03;;;;;;;1.30;1.20;;;17.10;99.90;;;;;;5052278;28;20466;-53
2022/06/29 01:08:30;;;;;;;3.97;1.40;;;17.10;99.90;;;;;;5051847;28;20515;-53
2022/06/29 01:10:57;;;;;;;1.73;1.17;;;17.00;99.90;;;;;;5044899;28;20523;-53
2022/06/29 01:13:24;;;;;;;1.53;1.20;;;17.00;99.90;;;;;;5049641;28;20472;-53
2022/06/29 01:15:52;;;;;;;1.50;1.40;;;16.90;99.90;;;;;;5046618;28;20489;-54
2022/06/29 01:18:18;;;;;;;4.30;1.30;;;17.00;1.40;;;;;;5051876;28;20551;-53
2022/06/29 01:20:45;;;;;;;1.10;0.97;;;16.90;99.90;;;;;;5051382;28;20482;-52
2022/06/29 01:23:13;;;;;;;1.13;1.03;;;16.90;99.90;;;;;;5043789;28;20575;-53
2022/06/29 01:25:40;;;;;;;3.83;1.50;;;16.90;99.90;;;;;;5043724;28;20588;-54
2022/06/29 01:28:06;;;;;;;1.20;1.10;;;16.80;99.90;;;;;;5046913;28;20547;-53
2022/06/29 01:30:33;;;;;;;8.73;1.27;;;16.80;99.90;;;;;;5046658;28;20510;-54
2022/06/29 01:33:00;;;;;;;1.30;1.20;;;16.80;99.90;;;;;;5048028;28;20462;-53
2022/06/29 01:35:26;;;;;;;1.70;1.60;;;16.80;99.90;;;;;;5049398;28;20834;-55
2022/06/29 01:37:53;;;;;;;1.10;1.10;;;16.70;99.90;;;;;;5049750;28;20536;-53
2022/06/29 01:40:21;;;;;;;4.93;2.10;;;16.80;99.90;;;;;;5041646;28;20469;-53
2022/06/29 01:42:47;;;;;;;1.53;0.90;;;16.70;99.90;;;;;;5044839;28;20512;-53
2022/06/29 01:45:14;;;;;;;3.60;1.20;;;16.70;99.90;;;;;;5048285;28;20493;-54
2022/06/29 01:47:40;;;;;;;1.77;1.20;;;16.70;99.90;;;;;;5051145;28;20481;-54
2022/06/29 01:50:07;;;;;;;1.37;1.30;;;16.70;99.90;;;;;;5041041;28;20467;-54
2022/06/29 01:52:34;;;;;;;1.87;1.00;;;16.70;99.90;;;;;;5041947;28;20498;-51
2022/06/29 01:55:01;;;;;;;1.40;1.30;;;16.70;99.90;;;;;;5048514;28;21077;-53
2022/06/29 01:57:29;;;;;;;3.13;1.10;;;16.60;99.90;;;;;;5043709;28;21027;-55
2022/06/29 01:59:55;;;;;;;1.23;1.10;;;16.70;99.90;;;;;;5047075;28;20494;-53
2022/06/29 02:02:22;;;;;;;2.93;1.70;;;16.60;99.90;;;;;;5048185;28;20489;-52
2022/06/29 02:04:48;;;;;;;1.40;1.37;;;16.60;99.90;;;;;;5049086;28;20497;-53
2022/06/29 02:07:15;;;;;;;1.60;1.40;;;16.60;99.90;;;;;;5051890;28;22284;-53
2022/06/29 02:09:41;;;;;;;1.60;1.37;;;16.60;99.90;;;;;;5048660;28;20831;-53
2022/06/29 02:12:09;;;;;;;3.33;1.10;;;16.60;99.90;;;;;;5049347;28;20517;-52
2022/06/29 02:14:37;;;;;;;1.60;1.50;;;16.50;99.90;;;;;;5047881;28;20497;-53
2022/06/29 02:17:04;;;;;;;3.37;1.50;;;16.60;99.90;;;;;;5048511;28;20799;-52
2022/06/29 02:19:30;;;;;;;1.60;1.50;;;16.50;99.90;;;;;;5050104;28;20490;-53
2022/06/29 02:21:57;;;;;;;1.10;1.10;;;16.50;99.90;;;;;;5047991;28;20559;-52
2022/06/29 02:24:23;;;;;;;1.20;1.20;;;16.50;99.90;;;;;;5050395;28;20570;-53
2022/06/29 02:26:50;;;;;;;1.03;1.03;;;16.40;99.90;;;;;;5048036;28;21052;-54
2022/06/29 02:29:17;;;;;;;1.10;1.10;;;16.40;99.90;;;;;;5047658;28;20508;-54
2022/06/29 02:34:44;;;;;;;1.53;1.43;;;16.40;99.90;;;;;;5040105;28;20448;-53
2022/06/29 02:37:10;;;;;;;1.53;1.40;;;16.30;99.90;;;;;;5049065;28;20505;-54
2022/06/29 02:39:38;;;;;;;3.20;1.23;;;16.30;99.90;;;;;;5050491;28;20894;-55
2022/06/29 02:42:05;;;;;;;1.57;1.43;;;16.30;99.90;;;;;;5048281;28;20477;-55
2022/06/29 02:44:31;;;;;;;5.20;1.63;;;16.30;99.90;;;;;;5050258;28;20489;-52
2022/06/29 02:46:59;;;;;;;1.50;1.40;;;16.20;99.90;;;;;;5041492;28;20510;-54
2022/06/29 02:49:26;;;;;;;1.47;1.33;;;16.20;99.90;;;;;;5048721;28;20490;-53
2022/06/29 02:51:52;;;;;;;1.50;1.40;;;16.20;99.90;;;;;;5048976;28;20518;-53
2022/06/29 02:54:19;;;;;;;1.70;1.33;;;16.20;99.90;;;;;;5048567;28;20925;-53
2022/06/29 02:56:45;;;;;;;1.30;1.30;;;16.20;99.90;;;;;;5048467;28;20536;-53
2022/06/29 02:59:12;;;;;;;1.90;1.20;;;16.10;99.90;;;;;;5049550;28;20567;-53
2022/06/29 03:01:39;;;;;;;2.40;1.67;;;16.10;99.90;;;;;;5050642;28;20496;-53
2022/06/29 03:04:06;;;;;;;2.90;1.70;;;16.10;99.90;;;;;;5041688;28;20560;-54
2022/06/29 03:06:33;;;;;;;2.30;1.17;;;16.00;99.90;;;;;;5047994;28;20516;-53
2022/06/29 03:09:00;;;;;;;1.27;1.27;;;16.00;99.90;;;;;;5043108;28;20490;-53
2022/06/29 03:11:26;;;;;;;1.50;1.40;;;16.00;97.50;;;;;;5048923;28;20521;-53
2022/06/29 03:13:53;;;;;;;1.13;1.07;;;16.00;91.60;;;;;;5047667;28;20498;-53
2022/06/29 03:16:20;;;;;;;1.20;1.20;;;15.80;93.40;;;;;;5047173;28;21250;-53
2022/06/29 03:18:46;;;;;;;1.77;1.50;;;15.80;93.20;;;;;;5047226;28;20495;-52
2022/06/29 03:21:14;;;;;;;1.23;1.10;;;15.80;88.90;;;;;;5048278;28;21025;-54
2022/06/29 03:23:41;;;;;;;1.80;1.17;;;15.80;91.90;;;;;;5047079;28;20493;-54
2022/06/29 03:26:07;;;;;;;1.40;1.30;;;15.80;86.50;;;;;;5047084;28;20494;-54
2022/06/29 03:28:34;;;;;;;1.73;1.63;;;15.80;79.90;;;;;;5047332;28;21088;-52
2022/06/29 03:31:01;;;;;;;1.33;1.23;;;15.80;86.30;;;;;;5047075;28;20578;-54
2022/06/29 03:33:27;;;;;;;1.47;1.37;;;15.80;79.60;;;;;;5041590;28;20559;-53
2022/06/29 03:35:54;;;;;;;3.50;1.73;;;15.80;81.00;;;;;;5050706;28;20523;-52
2022/06/29 03:38:22;;;;;;;1.60;1.50;;;15.80;80.70;;;;;;5046823;28;20510;-53
2022/06/29 03:40:48;;;;;;;2.50;1.50;;;15.80;80.40;;;;;;5040802;28;20586;-54
2022/06/29 03:43:15;;;;;;;1.40;1.30;;;15.80;82.60;;;;;;5047759;28;20516;-52
2022/06/29 03:45:42;;;;;;;1.03;1.00;;;15.90;80.90;;;;;;5047774;28;20955;-53
2022/06/29 03:48:09;;;;;;;1.57;1.40;;;15.90;87.60;;;;;;5046509;28;20582;-53
2022/06/29 03:50:36;;;;;;;1.40;1.30;;;15.80;84.40;;;;;;5046011;28;20520;-53
2022/06/29 03:53:02;;;;;;;1.43;1.10;;;15.90;84.60;;;;;;5034872;28;21060;-54
2022/06/29 03:55:30;;;;;;;9.83;1.63;;;15.80;87.10;;;;;;5048920;28;20924;-53
2022/06/29 03:57:57;;;;;;;3.53;1.53;;;15.90;82.40;;;;;;5046795;28;20485;-54
2022/06/29 04:00:23;;;;;;;3.90;1.40;;;15.90;76.50;;;;;;5050003;28;20967;-53
2022/06/29 04:02:50;;;;;;;1.63;1.40;;;15.90;88.00;;;;;;5048193;28;20481;-54
2022/06/29 04:05:17;;;;;;;2.30;1.50;;;15.90;80.50;;;;;;5043070;28;20486;-54
2022/06/29 04:07:43;;;;;;;2.00;1.37;;;16.00;79.10;;;;;;5049946;28;20551;-54
2022/06/29 04:10:10;;;;;;;3.23;1.70;;;16.10;89.60;;;;;;5042829;28;20500;-53
2022/06/29 04:12:38;;;;;;;1.93;1.37;;;16.10;87.50;;;;;;5048433;28;20517;-53
2022/06/29 04:15:07;;;;;;;1.47;1.37;;;16.20;87.90;;;;;;5043573;28;20457;-54
2022/06/29 04:17:34;;;;;;;2.53;1.40;;;16.20;93.60;;;;;;5049955;28;20565;-52
2022/06/29 04:20:00;;;;;;;1.73;1.30;;;16.20;94.70;;;;;;5049498;28;20457;-57
2022/06/29 04:22:27;;;;;;;10.90;1.57;;;16.20;88.50;;;;;;5047692;28;20523;-52
2022/06/29 04:24:53;;;;;;;3.33;1.80;;;16.20;92.10;;;;;;5048065;28;20501;-54
2022/06/29 04:27:20;;;;;;;3.47;1.43;;;16.20;85.00;;;;;;5046546;28;21099;-54
2022/06/29 04:29:48;;;;;;;2.10;1.90;;;16.20;87.30;;;;;;5042743;28;20462;-53
2022/06/29 04:32:14;;;;;;;5.13;2.67;;;16.30;85.90;;;;;;5045104;28;21515;-52
2022/06/29 04:34:42;;;;;;;4.23;1.90;;;16.30;88.40;;;;;;5051588;28;20493;-54
2022/06/29 04:37:08;;;;;;;1.60;1.50;;;16.30;87.60;;;;;;5052215;28;20555;-53
2022/06/29 04:39:35;;;;;;;2.40;1.87;;;16.30;85.50;;;;;;5051227;28;20876;-55
2022/06/29 04:42:02;;;;;;;2.17;1.83;;;16.40;85.60;;;;;;5047112;28;20462;-55
2022/06/29 04:44:28;;;;;;;2.50;1.30;;;16.40;87.70;;;;;;5039235;28;20498;-58
2022/06/29 04:46:56;;;;;;;2.07;1.10;;;16.40;86.90;;;;;;5041165;28;20485;-53
2022/06/29 04:49:23;;;;;;;1.30;1.20;;;16.50;87.20;;;;;;5047619;28;20467;-53
2022/06/29 04:51:50;;;;;;;1.90;1.30;;;16.50;88.70;;;;;;5051255;28;20811;-53
2022/06/29 04:54:16;;;;;;;1.50;1.50;;;16.60;92.90;;;;;;5049101;28;20461;-53
2022/06/29 04:56:43;;;;;;;7.33;2.07;;;16.70;94.30;;;;;;5052768;28;20597;-53
2022/06/29 04:59:10;;;;;;;2.70;1.20;;;16.70;95.40;;;;;;5047440;28;20458;-54
2022/06/29 05:01:37;;;;;;;5.30;1.63;;;16.70;99.90;;;;;;5045831;28;20555;-53
2022/06/29 05:04:05;;;;;;;3.23;1.53;;;16.80;99.90;;;;;;5043783;28;20976;-53
2022/06/29 05:06:31;;;;;;;6.40;1.37;;;16.90;99.90;;;;;;5049258;28;20482;-53
2022/06/29 05:08:58;;;;;;;2.90;1.73;;;17.00;99.90;;;;;;5045651;28;21025;-53
2022/06/29 05:11:26;;;;;;;1.47;1.37;;;17.00;99.90;;;;;;5044860;28;20579;-55
2022/06/29 05:13:52;;;;;;;3.67;1.80;;;17.10;99.90;;;;;;5047753;28;20822;-54
2022/06/29 05:16:20;;;;;;;8.90;2.60;;;17.20;99.90;;;;;;5044299;28;20497;-53
2022/06/29 05:18:47;;;;;;;3.27;1.23;;;17.30;99.90;;;;;;5047951;28;20462;-53
2022/06/29 05:21:15;;;;;;;6.90;1.77;;;17.40;99.90;;;;;;5046071;28;20470;-53
2022/06/29 05:23:42;;;;;;;3.70;1.77;;;17.40;99.90;;;;;;5043757;28;20469;-53
2022/06/29 05:26:09;;;;;;;1.47;1.37;;;17.50;99.90;;;;;;5045388;28;20485;-54
2022/06/29 05:28:35;;;;;;;2.30;1.47;;;17.60;99.90;;;;;;5048951;28;20496;-53
2022/06/29 05:31:02;;;;;;;1.33;1.30;;;17.70;99.90;;;;;;5046590;28;20498;-55
2022/06/29 05:33:36;;;;;;;1.40;1.30;;;17.90;99.90;;;;;;5054769;28;20584;-54
2022/06/29 05:36:03;;;;;;;2.17;1.50;;;18.00;99.90;;;;;;5050435;28;20465;-54
2022/06/29 05:38:31;;;;;;;5.50;1.57;;;18.00;99.90;;;;;;5049366;28;20520;-54
2022/06/29 05:41:00;;;;;;;2.13;1.50;;;18.10;99.90;;;;;;5046885;28;20461;-53
2022/06/29 05:43:27;;;;;;;2.50;1.63;;;18.30;99.90;;;;;;5042413;28;20465;-52
2022/06/29 05:45:53;;;;;;;2.80;1.53;;;18.30;99.90;;;;;;5047258;28;20481;-52
2022/06/29 05:48:20;;;;;;;3.83;1.27;;;18.40;99.90;;;;;;5042868;28;20551;-53
2022/06/29 05:50:48;;;;;;;2.00;1.47;;;18.50;99.90;;;;;;5045001;28;20545;-54
2022/06/29 05:53:16;;;;;;;4.93;1.33;;;18.60;99.90;;;;;;5037607;28;20475;-52
2022/06/29 05:55:45;;;;;;;9.93;1.93;;;18.60;99.90;;;;;;5050812;28;20533;-53
2022/06/29 05:58:15;;;;;;;1.73;1.40;;;18.70;99.90;;;;;;5045929;28;20543;-55
2022/06/29 06:00:42;;;;;;;2.70;1.47;;;18.80;99.90;;;;;;5049674;28;20469;-54
2022/06/29 06:03:08;;;;;;;5.90;1.30;;;18.90;99.90;;;;;;5043158;28;20463;-54
2022/06/29 06:05:35;;;;;;;7.37;1.70;;;19.00;99.90;;;;;;5044632;28;20706;-53
2022/06/29 06:08:02;;;;;;;3.60;1.30;;;19.10;99.90;;;;;;5049159;28;21032;-53
2022/06/29 06:10:28;;;;;;;4.50;1.43;;;19.10;99.90;;;;;;5046611;28;21197;-53
2022/06/29 06:12:57;;;;;;;2.00;1.40;;;19.20;99.90;;;;;;5048855;28;20509;-54
2022/06/29 06:15:23;;;;;;;3.17;1.00;;;19.30;99.90;;;;;;5049172;28;20541;-53
2022/06/29 06:17:50;;;;;;;1.80;1.43;;;19.40;98.00;;;;;;5048100;28;20486;-53
2022/06/29 06:20:17;;;;;;;5.40;1.57;;;19.40;99.90;;;;;;5044691;28;20543;-55
2022/06/29 06:22:44;;;;;;;2.00;1.30;;;19.50;97.70;;;;;;5041601;28;20545;-53
2022/06/29 06:25:10;;;;;;;3.00;1.37;;;19.50;98.30;;;;;;5044351;28;20489;-53
2022/06/29 06:27:37;;;;;;;3.80;1.60;;;19.60;78.30;;;;;;5047116;28;20543;-53
2022/06/29 06:30:06;;;;;;;2.00;1.23;;;19.60;21.20;;;;;;5049421;28;20462;-52
2022/06/29 06:32:33;;;;;;;11.87;1.47;;;19.70;34.20;;;;;;5043287;28;20559;-53
2022/06/29 06:34:59;;;;;;;6.20;1.53;;;19.80;35.60;;;;;;5049358;28;20489;-53
2022/06/29 06:37:26;;;;;;;5.10;1.23;;;19.90;44.70;;;;;;5046031;28;20510;-51
2022/06/29 06:42:37;;;;;;;1.77;1.20;;;20.00;61.10;;;;;;5039409;28;20552;-53
2022/06/29 06:45:06;;;;;;;1.10;1.10;;;20.00;67.30;;;;;;5042580;28;20461;-51
2022/06/29 06:47:33;;;;;;;2.70;1.30;;;20.10;63.50;;;;;;5051716;28;20752;-52
2022/06/29 06:50:00;;;;;;;1.40;1.30;;;20.10;63.70;;;;;;5049073;28;20458;-51
2022/06/29 06:52:26;;;;;;;1.93;1.13;;;20.10;74.80;;;;;;5042968;28;20554;-52
2022/06/29 06:54:53;;;;;;;3.10;1.17;;;20.20;72.80;;;;;;5046804;28;20485;-52
2022/06/29 06:57:19;;;;;;;3.87;1.07;;;20.20;73.40;;;;;;5042867;28;20520;-52
2022/06/29 06:59:46;;;;;;;2.53;1.20;;;20.20;81.30;;;;;;5050301;28;20493;-52
2022/06/29 07:02:14;;;;;;;1.20;1.20;;;20.30;83.50;;;;;;5049253;28;20466;-53
2022/06/29 07:04:42;;;;;;;1.03;1.03;;;20.30;87.90;;;;;;5047776;28;20955;-51
2022/06/29 07:07:09;;;;;;;2.60;1.63;;;20.30;94.20;;;;;;5044644;28;20474;-51
2022/06/29 07:09:35;;;;;;;1.20;1.10;;;20.30;99.40;;;;;;5043084;28;20588;-52
2022/06/29 07:12:02;;;;;;;2.40;1.37;;;20.40;99.90;;;;;;5050222;28;20509;-52
2022/06/29 07:14:29;;;;;;;7.67;1.97;;;20.50;99.90;;;;;;5044394;28;20468;-51
2022/06/29 07:16:55;;;;;;;1.73;1.20;;;20.60;99.90;;;;;;5046077;28;20535;-52
2022/06/29 07:19:23;;;;;;;1.17;1.07;;;20.80;99.90;;;;;;5048524;28;20955;-52
2022/06/29 07:21:50;;;;;;;4.67;0.90;;;21.00;99.90;;;;;;5046704;28;20458;-52
2022/06/29 07:24:17;;;;;;;1.10;1.00;;;21.00;99.90;;;;;;5047168;28;20493;-52
2022/06/29 07:26:44;;;;;;;9.03;1.13;;;21.00;99.90;;;;;;5042510;28;20563;-51
2022/06/29 07:29:10;;;;;;;1.53;1.03;;;21.10;99.90;;;;;;5047355;28;20555;-51
2022/06/29 07:31:37;;;;;;;1.30;1.00;;;21.10;99.90;;;;;;5047041;28;20951;-53
2022/06/29 07:34:04;;;;;;;1.60;1.30;;;21.00;99.90;;;;;;5049531;28;21034;-52
2022/06/29 07:36:32;;;;;;;1.47;1.20;;;21.10;99.90;;;;;;5047007;28;20866;-52
2022/06/29 07:38:58;;;;;;;1.07;0.90;;;21.10;99.90;;;;;;5045509;28;20535;-52
2022/06/29 07:41:25;;;;;;;7.47;1.47;;;21.00;99.90;;;;;;5044586;28;20964;-52
2022/06/29 07:43:52;;;;;;;2.60;1.50;;;21.00;99.90;;;;;;5048748;28;20465;-52
2022/06/29 07:46:18;;;;;;;1.17;1.07;;;21.00;99.90;;;;;;5043907;28;21295;-51
2022/06/29 07:48:45;;;;;;;3.40;0.97;;;21.00;99.90;;;;;;5044656;28;20543;-54
2022/06/29 07:51:12;;;;;;;1.00;0.80;;;21.00;99.90;;;;;;5045461;28;20465;-52
2022/06/29 07:53:39;;;;;;;1.10;1.00;;;21.10;99.90;;;;;;5037634;28;20562;-53
2022/06/29 07:56:06;;;;;;;2.03;1.10;;;21.00;99.90;;;;;;5046792;28;20855;-52
2022/06/29 07:58:33;;;;;;;1.40;1.30;;;21.10;99.90;;;;;;5040923;28;20535;-52
2022/06/29 08:01:00;;;;;;;1.43;1.00;;;21.10;99.90;;;;;;5047871;28;20465;-51
2022/06/29 08:03:26;;;;;;;2.47;0.80;;;21.20;99.90;;;;;;5047436;28;20462;-52
2022/06/29 08:05:53;;;;;;;1.07;1.00;;;21.20;99.90;;;;;;5045193;28;21470;-53
2022/06/29 08:08:20;;;;;;;3.43;0.90;;;21.20;99.90;;;;;;5050679;28;21015;-53
2022/06/29 08:10:47;;;;;;;1.53;1.10;;;21.40;99.90;;;;;;5052066;28;20494;-52
2022/06/29 08:13:14;;;;;;;1.57;1.47;;;21.40;99.90;;;;;;5045072;28;20513;-53
2022/06/29 08:15:42;;;;;;;5.93;1.00;;;21.50;99.90;;;;;;5039319;28;20493;-53
2022/06/29 08:18:08;;;;;;;3.07;1.13;;;21.50;99.90;;;;;;5041643;28;20986;-53
2022/06/29 08:20:35;;;;;;;1.37;1.00;;;21.70;99.90;;;;;;5044029;28;20528;-51
2022/06/29 08:23:02;;;;;;;0.90;0.90;;;21.70;99.90;;;;;;5046687;28;20449;-52
2022/06/29 08:25:28;;;;;;;1.37;1.23;;;21.80;99.90;;;;;;5049905;28;20462;-52
2022/06/29 08:27:56;;;;;;;4.30;1.20;;;21.80;99.90;;;;;;5049204;28;20504;-53
2022/06/29 08:30:23;;;;;;;4.00;0.80;;;21.90;99.90;;;;;;5044719;28;20472;-52
2022/06/29 08:32:50;;;;;;;4.57;1.00;;;21.90;99.90;;;;;;5049015;28;20489;-52
2022/06/29 08:35:18;;;;;;;3.27;1.43;;;21.90;99.90;;;;;;5054147;28;20920;-52
2022/06/29 08:37:46;;;;;;;1.20;0.90;;;22.00;99.90;;;;;;5052055;28;20978;-52
2022/06/29 08:40:15;;;;;;;1.83;1.40;;;22.10;99.90;;;;;;5050787;28;20465;-53
2022/06/29 08:42:42;;;;;;;1.60;1.50;;;22.20;99.90;;;;;;5050854;28;20470;-51
2022/06/29 08:45:12;;;;;;;1.53;1.00;;;22.30;99.90;;;;;;5044683;28;21205;-52
2022/06/29 08:47:41;;;;;;;1.13;1.13;;;22.30;99.90;;;;;;5049295;28;20507;-51
2022/06/29 08:50:10;;;;;;;0.83;0.80;;;22.30;99.90;;;;;;5045190;28;20475;-52
2022/06/29 08:52:38;;;;;;;3.30;1.30;;;22.30;99.90;;;;;;5045515;28;20587;-53
2022/06/29 08:55:06;;;;;;;1.30;1.20;;;22.30;99.90;;;;;;5046437;28;20959;-51
2022/06/29 08:57:36;;;;;;;1.47;0.90;;;22.40;99.90;;;;;;5040332;28;20512;-53
2022/06/29 09:00:04;;;;;;;2.20;1.03;;;22.50;99.90;;;;;;5044472;28;20459;-52
2022/06/29 09:02:32;;;;;;;0.70;0.70;;;22.60;99.90;;;;;;5040266;28;21048;-51
2022/06/29 09:04:59;;;;;;;1.70;0.80;;;22.80;99.90;;;;;;5045066;28;20494;-53
2022/06/29 09:07:26;;;;;;;1.37;0.80;;;23.00;99.90;;;;;;5046767;28;21529;-51
2022/06/29 09:10:00;;;;;;;0.90;0.90;;;23.30;99.90;;;;;;5049459;28;20473;-53
2022/06/29 09:12:27;;;;;;;3.03;0.97;;;23.50;99.90;;;;;;5043608;28;20485;-51
2022/06/29 09:14:54;;;;;;;2.33;0.97;;;23.50;99.90;;;;;;5043425;28;20493;-53
2022/06/29 09:17:21;;;;;;;2.60;1.00;;;23.50;99.90;;;;;;5049585;28;20510;-53
2022/06/29 09:19:50;;;;;;;5.13;0.90;;;23.50;99.90;;;;;;5049949;28;20458;-51
2022/06/29 09:22:17;;;;;;;2.43;1.20;;;23.60;99.90;;;;;;5045720;28;20546;-53
2022/06/29 09:24:43;;;;;;;0.70;0.70;;;23.50;99.90;;;;;;5043661;28;20477;-53
2022/06/29 09:27:12;;;;;;;3.50;0.70;;;23.50;99.90;;;;;;5045157;28;20522;-52
2022/06/29 09:29:41;;;;;;;1.77;0.80;;;23.60;99.90;;;;;;5049045;28;20918;-53
2022/06/29 09:32:15;;;;;;;1.17;0.87;;;23.50;99.90;;;;;;5046068;28;20473;-52
2022/06/29 09:34:44;;;;;;;1.30;0.97;;;23.50;99.90;;;;;;5048524;28;20481;-52
2022/06/29 09:37:13;;;;;;;1.87;1.07;;;23.50;99.90;;;;;;5051902;28;20485;-52
2022/06/29 09:39:42;;;;;;;1.73;1.00;;;23.50;99.90;;;;;;5051133;28;20963;-52
2022/06/29 09:42:11;;;;;;;0.70;0.70;;;23.40;99.90;;;;;;5045301;28;20547;-53
2022/06/29 09:44:37;;;;;;;1.30;0.70;;;23.40;99.90;;;;;;5050259;28;20454;-52
2022/06/29 09:47:06;;;;;;;1.10;1.00;;;23.40;99.90;;;;;;5050992;28;21017;-53
2022/06/29 09:49:35;;;;;;;2.30;0.60;;;23.40;99.90;;;;;;5054120;28;20463;-52
2022/06/29 09:52:03;;;;;;;1.80;1.10;;;23.50;99.90;;;;;;5042806;28;20527;-53
2022/06/29 09:54:35;;;;;;;1.43;0.80;;;23.50;99.90;;;;;;5038319;28;20573;-51
2022/06/29 09:57:03;;;;;;;2.50;0.90;;;23.50;99.90;;;;;;5045816;28;20513;-52
2022/06/29 10:05:06;;;;;;;5.07;1.13;;;23.80;99.90;;;;;;5050504;28;20537;-53
2022/06/29 10:07:34;;;;;;;1.33;0.93;;;23.90;99.90;;;;;;5050422;28;20539;-52
2022/06/29 10:10:04;;;;;;;1.10;1.00;;;24.10;99.90;;;;;;5049685;28;20545;-52
2022/06/29 10:15:46;;;;;;;0.93;0.93;;;24.50;99.90;;;;;;5038674;28;20581;-53
2022/06/29 10:18:36;;;;;;;3.03;0.90;;;24.60;99.90;;;;;;5047175;28;20571;-52
2022/06/29 10:21:11;;;;;;;1.00;0.80;;;24.90;99.90;;;;;;5046541;28;20462;-53
2022/06/29 10:23:46;;;;;;;1.80;0.90;;;25.00;99.90;;;;;;5049205;28;20519;-52
2022/06/29 10:26:40;;;;;;;3.23;1.33;;;25.10;99.90;;;;;;5048146;28;20457;-54
2022/06/29 10:29:28;;;;;;;2.53;1.00;;;25.20;99.90;;;;;;5048380;28;20458;-53
2022/06/29 10:32:19;;;;;;;1.53;1.00;;;25.20;99.90;;;;;;5047627;28;20454;-53
2022/06/29 10:37:32;;;;;;;0.73;0.73;;;24.90;99.90;;;;;;5049079;28;20469;-51
2022/06/29 10:40:04;;;;;;;2.50;0.97;;;24.70;99.90;;;;;;5050773;28;20450;-54
2022/06/29 10:45:21;;;;;;;3.13;1.00;;;24.50;99.90;;;;;;5047522;28;21005;-53
2022/06/29 10:48:13;;;;;;;1.33;1.03;;;24.50;99.90;;;;;;5049488;28;20550;-52
2022/06/29 10:50:40;;;;;;;2.07;0.97;;;24.40;99.90;;;;;;5048263;28;21128;-52
2022/06/29 10:53:08;;;;;;;3.40;1.10;;;24.30;99.90;;;;;;5046318;28;20496;-53
2022/06/29 10:55:36;;;;;;;1.27;0.80;;;24.30;99.90;;;;;;5048213;28;20498;-53
2022/06/29 10:58:05;;;;;;;1.00;0.90;;;24.30;99.90;;;;;;5050023;28;20517;-53
2022/06/29 11:00:32;;;;;;;2.03;1.13;;;24.20;99.90;;;;;;5047895;28;20528;-51
2022/06/29 11:03:07;;;;;;;0.90;0.90;;;24.10;99.90;;;;;;5048750;28;20493;-51
2022/06/29 11:05:35;;;;;;;1.07;1.07;;;24.10;99.90;;;;;;5047341;28;20461;-52
2022/06/29 11:13:32;;;;;;;2.87;1.30;;;24.10;99.90;;;;;;5044010;28;20464;-54
2022/06/29 11:16:00;;;;;;;1.30;1.13;;;24.10;99.90;;;;;;5042801;28;20457;-53
2022/06/29 11:18:28;;;;;;;1.43;1.13;;;24.00;99.90;;;;;;5050894;28;20497;-52
2022/06/29 11:21:02;;;;;;;1.50;0.93;;;23.90;99.90;;;;;;5040141;28;20462;-53
2022/06/29 11:23:29;;;;;;;4.13;1.30;;;23.80;99.90;;;;;;5049575;28;20453;-54
2022/06/29 11:25:57;;;;;;;2.60;1.43;;;23.70;99.90;;;;;;5040830;28;20462;-52
2022/06/29 11:28:25;;;;;;;7.30;1.07;;;23.60;99.90;;;;;;5050429;28;20531;-54
2022/06/29 11:31:02;;;;;;;2.93;1.37;;;23.60;99.90;;;;;;5032535;28;21279;-53
2022/06/29 11:33:31;;;;;;;1.30;1.07;;;23.50;99.90;;;;;;5045420;28;20477;-53
2022/06/29 11:36:03;;;;;;;2.03;1.10;;;23.50;99.90;;;;;;5044651;28;20554;-53
2022/06/29 11:38:30;;;;;;;2.00;1.10;;;23.40;99.90;;;;;;5044393;28;20462;-53
2022/06/29 11:40:57;;;;;;;13.37;1.10;;;23.40;99.90;;;;;;5042037;28;20496;-53
2022/06/29 11:43:23;;;;;;;1.93;0.90;;;23.40;99.90;;;;;;5045591;28;20520;-52
2022/06/29 11:45:52;;;;;;;5.23;1.27;;;23.40;99.90;;;;;;5044573;28;20520;-52
2022/06/29 11:48:21;;;;;;;1.73;1.17;;;23.40;99.90;;;;;;5040436;28;20509;-53
2022/06/29 11:50:51;;;;;;;2.30;1.40;;;23.40;99.90;;;;;;5044623;28;20490;-53
2022/06/29 11:53:37;;;;;;;1.13;1.07;;;23.50;99.90;;;;;;5042287;28;20462;-53
2022/06/29 11:56:09;;;;;;;6.93;1.17;;;23.50;99.90;;;;;;5045823;28;21047;-53
2022/06/29 11:58:36;;;;;;;4.70;1.10;;;23.60;99.90;;;;;;5046485;28;20706;-53
2022/06/29 12:01:06;;;;;;;2.90;1.27;;;23.90;99.90;;;;;;5048239;28;20989;-53
2022/06/29 12:03:35;;;;;;;5.27;1.60;;;24.10;99.90;;;;;;5045750;28;20493;-54
2022/06/29 12:06:02;;;;;;;2.73;1.40;;;24.50;99.90;;;;;;5042549;28;20481;-53
2022/06/29 12:08:29;;;;;;;1.60;1.17;;;24.80;99.90;;;;;;5033678;28;20482;-54
2022/06/29 12:10:56;;;;;;;1.27;1.10;;;25.10;99.90;;;;;;5034849;28;20458;-54
2022/06/29 12:13:23;;;;;;;2.83;1.93;;;25.40;99.90;;;;;;5030271;28;22541;-53
2022/06/29 12:15:49;;;;;;;2.40;1.17;;;25.70;99.90;;;;;;5029122;28;20553;-54
2022/06/29 12:18:16;;;;;;;5.67;1.23;;;25.80;99.90;;;;;;5023925;28;20620;-52
2022/06/29 12:20:44;;;;;;;11.40;1.17;;;25.80;99.90;;;;;;5025320;28;20465;-52
2022/06/29 12:23:11;;;;;;;2.67;1.13;;;25.80;99.90;;;;;;5023929;28;20547;-54
2022/06/29 12:25:37;;;;;;;1.20;0.90;;;25.90;99.90;;;;;;5028334;28;20497;-53
2022/06/29 12:28:04;;;;;;;10.03;1.53;;;26.00;99.90;;;;;;5030838;28;20644;-52
2022/06/29 12:30:31;;;;;;;3.20;1.20;;;25.90;99.90;;;;;;5053999;28;20441;-53
2022/06/29 12:32:58;;;;;;;2.90;1.00;;;25.70;99.90;;;;;;5070095;28;20449;-50
2022/06/29 12:35:24;;;;;;;1.57;1.27;;;25.70;99.90;;;;;;5054825;28;20485;-53
2022/06/29 12:37:57;;;;;;;1.17;1.10;;;25.70;99.90;;;;;;5049744;28;20482;-52
2022/06/29 12:40:24;;;;;;;1.33;1.17;;;25.70;99.90;;;;;;5050739;28;20456;-53
2022/06/29 12:42:51;;;;;;;2.10;1.17;;;25.70;99.90;;;;;;5050123;28;20449;-53
2022/06/29 12:45:18;;;;;;;1.20;0.90;;;25.80;99.90;;;;;;5050674;28;20484;-51
2022/06/29 12:47:44;;;;;;;0.90;0.90;;;25.80;99.90;;;;;;5050393;28;20469;-52
2022/06/29 12:50:11;;;;;;;7.73;1.20;;;25.70;99.90;;;;;;5048555;28;20491;-53
2022/06/29 12:52:40;;;;;;;1.93;1.00;;;25.50;99.90;;;;;;5051755;28;20441;-53
2022/06/29 12:55:09;;;;;;;2.07;1.30;;;25.50;99.90;;;;;;5052643;28;20485;-52
2022/06/29 12:57:36;;;;;;;2.40;1.30;;;25.40;99.90;;;;;;5049278;28;20485;-52
2022/06/29 13:00:04;;;;;;;1.97;1.10;;;25.20;99.90;;;;;;5041556;28;20486;-52
2022/06/29 13:02:31;;;;;;;1.20;1.10;;;25.20;99.90;;;;;;5040384;28;20482;-52
2022/06/29 13:04:58;;;;;;;10.10;1.10;;;25.30;99.90;;;;;;5048494;28;20489;-51
2022/06/29 13:07:26;;;;;;;1.70;1.30;;;25.40;99.90;;;;;;5047567;28;20494;-52
2022/06/29 13:09:53;;;;;;;2.60;1.07;;;25.30;99.90;;;;;;5051566;28;20457;-52
2022/06/29 13:12:21;;;;;;;4.30;0.90;;;24.90;99.90;;;;;;5048116;28;20465;-52
2022/06/29 13:14:48;;;;;;;1.33;0.80;;;24.70;99.90;;;;;;5036235;28;20478;-53